Castalian Springs, Tennessee
Current Conditions -  °F | °C
As of 12:53 PM on Monday 20 Oct 2014 (Local Time) from KBNA Reporting Station
Broken Clouds Broken Clouds  
Wind Chill: 65°   Ceiling: 15000
Heat Index: 65°   Visibility: 10mi
Dew Point: 48°   Wind: 7mph
Humidity: 54%   Direction: 240°WSW
Pressure: 30.04"   Gusts: NA
Location:  36.39°N, 86.31°W
Report Text: KBNA 201753Z 24006KT 10SM SCT110 BKN150 BKN200 18/09 A3004 RMK AO2 SLP170 T01830089 10189 20056 58018
Loading
Personal Weather Stations






























Interactive Weather Map
Tropical Storm Tracking
New forecast layout! Learn more

10-Day Weather Forecast

Advertisements
Track Severe Weather on mobile